Date,TemperatureHighF,TemperatureAvgF,TemperatureLowF,DewpointHighF,DewpointAvgF,DewpointLowF,HumidityHigh,HumidityAvg,HumidityLow,PressureMaxIn,PressureMinIn,WindSpeedMaxMPH,WindSpeedAvgMPH,GustSpeedMaxMPH,PrecipitationSumIn
2013-1-1,23,11,5,-100,-100,-100,0,0,100,0.00,40.00,0,-999,0,0.00
2013-1-2,23,10,2,-100,-100,-100,0,0,100,0.00,40.00,0,-999,0,0.00
2013-1-3,23,10,1,-100,-100,-100,0,0,100,0.00,40.00,0,-999,0,0.00
2013-1-4,23,9,1,-100,-100,-100,0,0,100,0.00,40.00,0,-999,0,0.00
2013-1-5,25,13,1,-100,-100,-100,0,0,100,0.00,40.00,0,-999,0,0.00
2013-1-6,30,18,10,-100,-100,-100,0,0,100,0.00,40.00,0,-999,0,0.00
2013-1-7,29,15,4,-100,-100,-100,0,0,100,0.00,40.00,0,-999,0,0.00
2013-1-8,40,24,14,-100,-100,-100,0,0,100,0.00,40.00,0,-999,0,0.00
2013-1-9,41,28,17,-100,-100,-100,0,0,100,0.00,40.00,0,-999,0,0.00
2013-1-10,31,26,21,-100,-100,-100,0,0,100,0.00,40.00,0,-999,0,0.00
2013-1-11,28,18,7,-100,-100,-100,0,0,100,0.00,40.00,0,-999,0,0.00
2013-1-12,21,11,2,-100,-100,-100,0,0,100,0.00,40.00,0,-999,0,0.00
2013-1-13,18,8,-1,-100,-100,-100,0,0,100,0.00,40.00,0,-999,0,0.00
2013-1-14,20,12,-4,-100,-100,-100,0,0,100,0.00,40.00,0,-999,0,0.00
2013-1-15,30,19,4,-100,-100,-100,0,0,100,0.00,40.00,0,-999,0,0.00
2013-1-16,31,16,5,-100,-100,-100,0,0,100,0.00,40.00,0,-999,0,0.00
2013-1-17,31,17,4,-100,-100,-100,0,0,100,0.00,40.00,0,-999,0,0.00
2013-1-18,30,15,1,-100,-100,-100,0,0,100,0.00,40.00,0,-999,0,0.00
2013-1-19,32,16,2,-100,-100,-100,0,0,100,0.00,40.00,0,-999,0,0.00
2013-1-20,31,12,2,-100,-100,-100,0,0,100,0.00,40.00,0,-999,0,0.00
2013-1-21,32,16,3,-100,-100,-100,0,0,100,0.00,40.00,0,-999,0,0.00
2013-1-22,35,20,7,-100,-100,-100,0,0,100,0.00,40.00,0,-999,0,0.00
2013-1-23,35,27,17,-100,-100,-100,0,0,100,0.00,40.00,0,-999,0,0.00
2013-1-24,44,36,32,-100,-100,-100,0,0,100,0.00,40.00,0,-999,0,0.00
2013-1-25,49,36,27,-100,-100,-100,0,0,100,0.00,40.00,0,-999,0,0.00
2013-1-26,54,40,30,-100,-100,-100,0,0,100,0.00,40.00,0,-999,0,0.00
2013-1-27,35,30,22,-100,-100,-100,0,0,100,0.00,40.00,0,-999,0,0.00
2013-1-28,36,23,4,-100,-100,-100,0,0,100,0.00,40.00,0,-999,0,0.00
2013-1-29,45,37,30,-100,-100,-100,0,0,100,0.00,40.00,0,-999,0,0.00
2013-1-30,52,38,26,-100,-100,-100,0,0,100,0.00,40.00,0,-999,0,0.00
2013-1-31,52,37,18,-100,-100,-100,0,0,100,0.00,40.00,0,-999,0,0.00
2013-2-1,51,35,18,-100,-100,-100,0,0,100,0.00,40.00,0,-999,0,0.00
2013-2-2,43,34,27,-100,-100,-100,0,0,100,0.00,40.00,0,-999,0,0.00
2013-2-3,50,27,13,-100,-100,-100,0,0,100,0.00,40.00,0,-999,0,0.00
2013-2-4,54,36,18,-100,-100,-100,0,0,100,0.00,40.00,0,-999,0,0.00
2013-2-5,57,37,16,-100,-100,-100,0,0,100,0.00,40.00,0,-999,0,0.00
2013-2-6,47,35,23,-100,-100,-100,0,0,100,0.00,40.00,0,-999,0,0.00
2013-2-7,47,30,14,-100,-100,-100,0,0,100,0.00,40.00,0,-999,0,0.00
2013-2-8,34,27,21,-100,-100,-100,0,0,100,0.00,40.00,0,-999,0,0.00
2013-2-9,37,30,21,-100,-100,-100,0,0,100,0.00,40.00,0,-999,0,0.00
2013-2-10,39,31,23,-100,-100,-100,0,0,100,0.00,40.00,0,-999,0,0.00
2013-2-11,41,29,13,-100,-100,-100,0,0,100,0.00,40.00,0,-999,0,0.00
2013-2-12,48,29,12,-100,-100,-100,0,0,100,0.00,40.00,0,-999,0,0.00
2013-2-13,51,34,17,-100,-100,-100,0,0,100,0.00,40.00,0,-999,0,0.00
2013-2-14,51,35,21,-100,-100,-100,0,0,100,0.00,40.00,0,-999,0,0.00
2013-2-15,52,33,20,-100,-100,-100,0,0,100,0.00,40.00,0,-999,0,0.00
2013-2-16,55,34,16,-100,-100,-100,0,0,100,0.00,40.00,0,-999,0,0.00
2013-2-17,46,31,21,-100,-100,-100,0,0,100,0.00,40.00,0,-999,0,0.00
2013-2-18,47,26,12,-100,-100,-100,0,0,100,0.00,40.00,0,-999,0,0.00
2013-2-19,43,38,32,-100,-100,-100,0,0,100,0.00,40.00,0,-999,0,0.00
2013-2-20,41,31,22,-100,-100,-100,0,0,100,0.00,40.00,0,-999,0,0.00
2013-2-21,43,30,18,-100,-100,-100,0,0,100,0.00,40.00,0,-999,0,0.00
2013-2-22,46,36,18,-100,-100,-100,0,0,100,0.00,40.00,0,-999,0,0.00
2013-2-23,45,33,20,-100,-100,-100,0,0,100,0.00,40.00,0,-999,0,0.00
2013-2-24,39,27,16,-100,-100,-100,0,0,100,0.00,40.00,0,-999,0,0.00
2013-2-25,47,27,10,-100,-100,-100,0,0,100,0.00,40.00,0,-999,0,0.00
2013-2-26,40,26,17,-100,-100,-100,0,0,100,0.00,40.00,0,-999,0,0.00
2013-2-27,50,27,9,-100,-100,-100,0,0,100,0.00,40.00,0,-999,0,0.00
2013-2-28,58,40,20,-100,-100,-100,0,0,100,0.00,40.00,0,-999,0,0.00
2013-3-1,61,43,29,-100,-100,-100,0,0,100,0.00,40.00,0,-999,0,0.00
2013-3-2,61,41,29,-100,-100,-100,0,0,100,0.00,40.00,0,-999,0,0.00
2013-3-3,54,45,33,-100,-100,-100,0,0,100,0.00,40.00,0,-999,0,0.00
2013-3-4,51,40,29,-100,-100,-100,0,0,100,0.00,40.00,0,-999,0,0.00
2013-3-5,62,44,27,-100,-100,-100,0,0,100,0.00,40.00,0,-999,0,0.00
2013-3-6,45,40,33,-100,-100,-100,0,0,100,0.00,40.00,0,-999,0,0.00
2013-3-7,39,32,27,-100,-100,-100,0,0,100,0.00,40.00,0,-999,0,0.00
2013-3-8,45,34,27,-100,-100,-100,0,0,100,0.00,40.00,0,-999,0,0.00
2013-3-9,51,39,26,-100,-100,-100,0,0,100,0.00,40.00,0,-999,0,0.00
2013-3-10,54,38,21,-100,-100,-100,0,0,100,0.00,40.00,0,-999,0,0.00
2013-3-11,61,46,20,-100,-100,-100,0,0,100,0.00,40.00,0,-999,0,0.00
2013-3-12,67,46,27,-100,-100,-100,0,0,100,0.00,40.00,0,-999,0,0.00
2013-3-13,76,55,32,-100,-100,-100,0,0,100,0.00,40.00,0,-999,0,0.00
2013-3-14,66,51,36,-100,-100,-100,0,0,100,0.00,40.00,0,-999,0,0.00
2013-3-15,69,50,28,-100,-100,-100,0,0,100,0.00,40.00,0,-999,0,0.00
2013-3-16,66,52,32,-100,-100,-100,0,0,100,0.00,40.00,0,-999,0,0.00
2013-3-17,58,49,32,-100,-100,-100,0,0,100,0.00,40.00,0,-999,0,0.00
2013-3-18,59,44,20,-100,-100,-100,0,0,100,0.00,40.00,0,-999,0,0.00
2013-3-19,61,53,43,-100,-100,-100,0,0,100,0.00,40.00,0,-999,0,0.00
2013-3-20,62,52,44,-100,-100,-100,0,0,100,0.00,40.00,0,-999,0,0.00
2013-3-21,51,42,33,-100,-100,-100,0,0,100,0.00,40.00,0,-999,0,0.00
2013-3-22,44,32,19,-100,-100,-100,0,0,100,0.00,40.00,0,-999,0,0.00
2013-3-23,46,31,16,-100,-100,-100,0,0,100,0.00,40.00,0,-999,0,0.00
2013-3-24,56,37,25,-100,-100,-100,0,0,100,0.00,40.00,0,-999,0,0.00
2013-3-25,65,48,31,-100,-100,-100,0,0,100,0.00,40.00,0,-999,0,0.00
2013-3-26,60,51,41,-100,-100,-100,0,0,100,0.00,40.00,0,-999,0,0.00
2013-3-27,62,48,30,-100,-100,-100,0,0,100,0.00,40.00,0,-999,0,0.00
2013-3-28,63,53,44,-100,-100,-100,0,0,100,0.00,40.00,0,-999,0,0.00
2013-3-29,66,52,35,-100,-100,-100,0,0,100,0.00,40.00,0,-999,0,0.00
2013-3-30,73,53,41,-100,-100,-100,0,0,100,0.00,40.00,0,-999,0,0.00
2013-3-31,57,48,40,-100,-100,-100,0,0,100,0.00,40.00,0,-999,0,0.00
2013-4-1,57,44,30,-100,-100,-100,0,0,100,0.00,40.00,0,-999,0,0.00
2013-4-2,64,49,31,-100,-100,-100,0,0,100,0.00,40.00,0,-999,0,0.00
2013-4-3,70,53,31,-100,-100,-100,0,0,100,0.00,40.00,0,-999,0,0.00
2013-4-4,67,50,33,-100,-100,-100,0,0,100,0.00,40.00,0,-999,0,0.00
2013-4-5,65,54,43,-100,-100,-100,0,0,100,0.00,40.00,0,-999,0,0.00
2013-4-6,61,52,47,-100,-100,-100,0,0,100,0.00,40.00,0,-999,0,0.00
2013-4-7,64,52,40,-100,-100,-100,0,0,100,0.00,40.00,0,-999,0,0.00
2013-4-8,45,37,32,-100,-100,-100,0,0,100,0.00,40.00,0,-999,0,0.00
2013-4-9,54,40,29,-100,-100,-100,0,0,100,0.00,40.00,0,-999,0,0.00
2013-4-10,69,49,28,-100,-100,-100,0,0,100,0.00,40.00,0,-999,0,0.00
2013-4-11,62,51,40,-100,-100,-100,0,0,100,0.00,40.00,0,-999,0,0.00
2013-4-12,65,49,35,-100,-100,-100,0,0,100,0.00,40.00,0,-999,0,0.00
2013-4-13,69,55,46,-100,-100,-100,0,0,100,0.00,40.00,0,-999,0,0.00
2013-4-14,62,42,29,-100,-100,-100,0,0,100,0.00,40.00,0,-999,0,0.00
2013-4-15,42,36,32,-100,-100,-100,0,0,100,0.00,40.00,0,-999,0,0.00
2013-4-16,43,35,29,-100,-100,-100,0,0,100,0.00,40.00,0,-999,0,0.00
2013-4-17,47,33,24,-100,-100,-100,0,0,100,0.00,40.00,0,-999,0,0.00
2013-4-18,58,39,18,-100,-100,-100,0,0,100,0.00,40.00,0,-999,0,0.00
2013-4-19,68,49,25,-100,-100,-100,0,0,100,0.00,40.00,0,-999,0,0.00
2013-4-20,64,51,38,-100,-100,-100,0,0,100,0.00,40.00,0,-999,0,0.00
2013-4-21,71,54,35,-100,-100,-100,0,0,100,0.00,40.00,0,-999,0,0.00
2013-4-22,62,52,36,-100,-100,-100,0,0,100,0.00,40.00,0,-999,0,0.00
2013-4-23,60,46,27,-100,-100,-100,0,0,100,0.00,40.00,0,-999,0,0.00
2013-4-24,64,49,35,-100,-100,-100,0,0,100,0.00,40.00,0,-999,0,0.00
2013-4-25,71,54,37,-100,-100,-100,0,0,100,0.00,40.00,0,-999,0,0.00
2013-4-26,76,60,39,-100,-100,-100,0,0,100,0.00,40.00,0,-999,0,0.00
2013-4-27,80,64,47,-100,-100,-100,0,0,100,0.00,40.00,0,-999,0,0.00
2013-4-28,78,63,51,-100,-100,-100,0,0,100,0.00,40.00,0,-999,0,0.00
2013-4-29,76,65,49,-100,-100,-100,0,0,100,0.00,40.00,0,-999,0,0.00
2013-4-30,63,55,46,-100,-100,-100,0,0,100,0.00,40.00,0,-999,0,0.00
2013-5-1,60,43,34,-100,-100,-100,0,0,100,0.00,40.00,0,-999,0,0.00
2013-5-2,70,51,32,-100,-100,-100,0,0,100,0.00,40.00,0,-999,0,0.00
2013-5-3,75,58,39,-100,-100,-100,0,0,100,0.00,40.00,0,-999,0,0.00
2013-5-4,67,56,43,-100,-100,-100,0,0,100,0.00,40.00,0,-999,0,0.00
2013-5-5,73,59,49,-100,-100,-100,0,0,100,0.00,40.00,0,-999,0,0.00
2013-5-6,65,56,43,-100,-100,-100,0,0,100,0.00,40.00,0,-999,0,0.00
2013-5-7,56,51,46,-100,-100,-100,0,0,100,0.00,40.00,0,-999,0,0.00
2013-5-8,66,54,39,-100,-100,-100,0,0,100,0.00,40.00,0,-999,0,0.00
2013-5-9,75,64,44,-100,-100,-100,0,0,100,0.00,40.00,0,-999,0,0.00
2013-5-10,80,66,49,-100,-100,-100,0,0,100,0.00,40.00,0,-999,0,0.00
2013-5-11,83,68,48,-100,-100,-100,0,0,100,0.00,40.00,0,-999,0,0.00
2013-5-12,87,71,52,-100,-100,-100,0,0,100,0.00,40.00,0,-999,0,0.00
2013-5-13,85,70,51,-100,-100,-100,0,0,100,0.00,40.00,0,-999,0,0.00
2013-5-14,83,71,51,-100,-100,-100,0,0,100,0.00,40.00,0,-999,0,0.00
2013-5-15,80,69,62,-100,-100,-100,0,0,100,0.00,40.00,0,-999,0,0.00
2013-5-16,62,58,52,-100,-100,-100,0,0,100,0.00,40.00,0,-999,0,0.00
2013-5-17,68,57,46,-100,-100,-100,0,0,100,0.00,40.00,0,-999,0,0.00
2013-5-18,69,57,44,-100,-100,-100,0,0,100,0.00,40.00,0,-999,0,0.00
2013-5-19,65,54,46,-100,-100,-100,0,0,100,0.00,40.00,0,-999,0,0.00
2013-5-20,73,55,40,-100,-100,-100,0,0,100,0.00,40.00,0,-999,0,0.00
2013-5-21,78,61,45,-100,-100,-100,0,0,100,0.00,40.00,0,-999,0,0.00
2013-5-22,58,48,38,-100,-100,-100,0,0,100,0.00,40.00,0,-999,0,0.00
2013-5-23,59,47,32,-100,-100,-100,0,0,100,0.00,40.00,0,-999,0,0.00
2013-5-24,74,55,30,-100,-100,-100,0,0,100,0.00,40.00,0,-999,0,0.00
2013-5-25,71,61,48,-100,-100,-100,0,0,100,0.00,40.00,0,-999,0,0.00
2013-5-26,72,61,48,-100,-100,-100,0,0,100,0.00,40.00,0,-999,0,0.00
2013-5-27,65,57,45,-100,-100,-100,0,0,100,0.00,40.00,0,-999,0,0.00
2013-5-28,65,55,49,-100,-100,-100,0,0,100,0.00,40.00,0,-999,0,0.00
2013-5-29,70,59,43,-100,-100,-100,0,0,100,0.00,40.00,0,-999,0,0.00
2013-5-30,75,63,47,-100,-100,-100,0,0,100,0.00,40.00,0,-999,0,0.00
2013-5-31,77,63,45,-100,-100,-100,0,0,100,0.00,40.00,0,-999,0,0.00
2013-6-1,83,69,52,-100,-100,-100,0,0,100,0.00,40.00,0,-999,0,0.00
2013-6-2,87,69,51,-100,-100,-100,0,0,100,0.00,40.00,0,-999,0,0.00
2013-6-3,83,66,48,-100,-100,-100,0,0,100,0.00,40.00,0,-999,0,0.00
2013-6-4,87,71,54,-100,-100,-100,0,0,100,0.00,40.00,0,-999,0,0.00
2013-6-5,89,72,57,-100,-100,-100,0,0,100,0.00,40.00,0,-999,0,0.00
2013-6-6,94,80,51,-100,-100,-100,0,0,100,0.00,40.00,0,-999,0,0.00
2013-6-7,94,77,62,-100,-100,-100,0,0,100,0.00,40.00,0,-999,0,0.00
2013-6-8,93,78,64,-100,-100,-100,0,0,100,0.00,40.00,0,-999,0,0.00
2013-6-9,97,82,65,-100,-100,-100,0,0,100,0.00,40.00,0,-999,0,0.00
2013-6-10,86,72,62,-100,-100,-100,0,0,100,0.00,40.00,0,-999,0,0.00
2013-6-11,85,72,52,-100,-100,-100,0,0,100,0.00,40.00,0,-999,0,0.00
2013-6-12,85,69,57,-100,-100,-100,0,0,100,0.00,40.00,0,-999,0,0.00
2013-6-13,76,65,51,-100,-100,-100,0,0,100,0.00,40.00,0,-999,0,0.00
2013-6-14,73,60,41,-100,-100,-100,0,0,100,0.00,40.00,0,-999,0,0.00
2013-6-15,83,66,50,-100,-100,-100,0,0,100,0.00,40.00,0,-999,0,0.00
2013-6-16,82,72,55,-100,-100,-100,0,0,100,0.00,40.00,0,-999,0,0.00
2013-6-17,85,72,58,-100,-100,-100,0,0,100,0.00,40.00,0,-999,0,0.00
2013-6-18,78,68,51,-100,-100,-100,0,0,100,0.00,40.00,0,-999,0,0.00
2013-6-19,69,59,46,-100,-100,-100,0,0,100,0.00,40.00,0,-999,0,0.00
2013-6-20,62,49,40,-100,-100,-100,0,0,100,0.00,40.00,0,-999,0,0.00
2013-6-22,79,71,54,-100,-100,-100,0,0,100,0.00,40.00,0,-999,0,0.00
2013-6-23,78,69,55,-100,-100,-100,0,0,100,0.00,40.00,0,-999,0,0.00
2013-6-24,65,59,47,-100,-100,-100,0,0,100,0.00,40.00,0,-999,0,0.00
2013-6-25,79,67,52,-100,-100,-100,0,0,100,0.00,40.00,0,-999,0,0.00
2013-6-26,89,75,55,-100,-100,-100,0,0,100,0.00,40.00,0,-999,0,0.00
2013-6-27,94,77,59,-100,-100,-100,0,0,100,0.00,40.00,0,-999,0,0.00
2013-6-28,100,86,63,-100,-100,-100,0,0,100,0.00,40.00,0,-999,0,0.00
2013-6-29,98,90,78,-100,-100,-100,0,0,100,0.00,40.00,0,-999,0,0.00
2013-6-30,101,88,70,-100,-100,-100,0,0,100,0.00,40.00,0,-999,0,0.00
2013-7-1,102,88,71,-100,-100,-100,0,0,100,0.00,40.00,0,-999,0,0.00
2013-7-2,102,88,72,-100,-100,-100,0,0,100,0.00,40.00,0,-999,0,0.00
2013-7-3,94,80,65,-100,-100,-100,0,0,100,0.00,40.00,0,-999,0,0.00
2013-7-4,92,77,65,-100,-100,-100,0,0,100,0.00,40.00,0,-999,0,0.00
2013-7-5,94,80,61,-100,-100,-100,0,0,100,0.00,40.00,0,-999,0,0.00
2013-7-6,93,76,57,-100,-100,-100,0,0,100,0.00,40.00,0,-999,0,0.00
2013-7-7,91,79,60,-100,-100,-100,0,0,100,0.00,40.00,0,-999,0,0.00
2013-7-8,92,76,62,-100,-100,-100,0,0,100,0.00,40.00,0,-999,0,0.00
2013-7-9,94,82,67,-100,-100,-100,0,0,100,0.00,40.00,0,-999,0,0.00
2013-7-10,93,79,63,-100,-100,-100,0,0,100,0.00,40.00,0,-999,0,0.00
2013-7-11,88,79,69,-100,-100,-100,0,0,100,0.00,40.00,0,-999,0,0.00
2013-7-12,90,68,51,-100,-100,-100,0,0,100,0.00,40.00,0,-999,0,0.00
2013-7-13,90,77,56,-100,-100,-100,0,0,100,0.00,40.00,0,-999,0,0.00
2013-7-14,91,76,62,-100,-100,-100,0,0,100,0.00,40.00,0,-999,0,0.00
2013-7-15,93,78,62,-100,-100,-100,0,0,100,0.00,40.00,0,-999,0,0.00
2013-7-16,91,81,71,-100,-100,-100,0,0,100,0.00,40.00,0,-999,0,0.00
2013-7-17,91,78,59,-100,-100,-100,0,0,100,0.00,40.00,0,-999,0,0.00
2013-7-18,96,80,59,-100,-100,-100,0,0,100,0.00,40.00,0,-999,0,0.00
2013-7-19,100,84,66,-100,-100,-100,0,0,100,0.00,40.00,0,-999,0,0.00
2013-7-20,102,85,69,-100,-100,-100,0,0,100,0.00,40.00,0,-999,0,0.00
2013-7-21,101,86,70,-100,-100,-100,0,0,100,0.00,40.00,0,-999,0,0.00
2013-7-22,100,89,73,-100,-100,-100,0,0,100,0.00,40.00,0,-999,0,0.00
2013-7-23,87,81,72,-100,-100,-100,0,0,100,0.00,40.00,0,-999,0,0.00
2013-7-24,92,79,62,-100,-100,-100,0,0,100,0.00,40.00,0,-999,0,0.00
2013-7-25,94,80,67,-100,-100,-100,0,0,100,0.00,40.00,0,-999,0,0.00
2013-7-26,96,79,62,-100,-100,-100,0,0,100,0.00,40.00,0,-999,0,0.00
2013-7-27,91,79,61,-100,-100,-100,0,0,100,0.00,40.00,0,-999,0,0.00
2013-7-28,92,80,65,-100,-100,-100,0,0,100,0.00,40.00,0,-999,0,0.00
2013-7-29,90,78,62,-100,-100,-100,0,0,100,0.00,40.00,0,-999,0,0.00
2013-7-30,90,74,55,-100,-100,-100,0,0,100,0.00,40.00,0,-999,0,0.00
2013-7-31,90,80,67,-100,-100,-100,0,0,100,0.00,40.00,0,-999,0,0.00
2013-8-1,84,73,56,-100,-100,-100,0,0,100,0.00,40.00,0,-999,0,0.00
2013-8-2,83,68,51,-100,-100,-100,0,0,100,0.00,40.00,0,-999,0,0.00
2013-8-3,87,74,51,-100,-100,-100,0,0,100,0.00,40.00,0,-999,0,0.00
2013-8-4,91,80,56,-100,-100,-100,0,0,100,0.00,40.00,0,-999,0,0.00
2013-8-5,91,78,64,-100,-100,-100,0,0,100,0.00,40.00,0,-999,0,0.00
2013-8-6,94,83,67,-100,-100,-100,0,0,100,0.00,40.00,0,-999,0,0.00
2013-8-7,87,81,72,-100,-100,-100,0,0,100,0.00,40.00,0,-999,0,0.00
2013-8-8,83,71,60,-100,-100,-100,0,0,100,0.00,40.00,0,-999,0,0.00
2013-8-9,83,71,54,-100,-100,-100,0,0,100,0.00,40.00,0,-999,0,0.00
2013-8-10,83,73,55,-100,-100,-100,0,0,100,0.00,40.00,0,-999,0,0.00
2013-8-11,85,72,61,-100,-100,-100,0,0,100,0.00,40.00,0,-999,0,0.00
2013-8-12,87,75,63,-100,-100,-100,0,0,100,0.00,40.00,0,-999,0,0.00
2013-8-13,90,76,53,-100,-100,-100,0,0,100,0.00,40.00,0,-999,0,0.00
2013-8-14,92,77,58,-100,-100,-100,0,0,100,0.00,40.00,0,-999,0,0.00
2013-8-15,92,74,58,-100,-100,-100,0,0,100,0.00,40.00,0,-999,0,0.00
2013-8-16,91,80,54,-100,-100,-100,0,0,100,0.00,40.00,0,-999,0,0.00
2013-8-17,91,75,61,-100,-100,-100,0,0,100,0.00,40.00,0,-999,0,0.00
2013-8-18,94,77,64,-100,-100,-100,0,0,100,0.00,40.00,0,-999,0,0.00
2013-8-19,87,77,68,-100,-100,-100,0,0,100,0.00,40.00,0,-999,0,0.00
2013-8-20,91,78,63,-100,-100,-100,0,0,100,0.00,40.00,0,-999,0,0.00
2013-8-21,86,74,64,-100,-100,-100,0,0,100,0.00,40.00,0,-999,0,0.00
2013-8-22,86,79,62,-100,-100,-100,0,0,100,0.00,40.00,0,-999,0,0.00
2013-8-23,85,68,52,-100,-100,-100,0,0,100,0.00,40.00,0,-999,0,0.00
2013-8-24,85,67,50,-100,-100,-100,0,0,100,0.00,40.00,0,-999,0,0.00
2013-8-25,81,68,51,-100,-100,-100,0,0,100,0.00,40.00,0,-999,0,0.00
2013-8-26,83,67,51,-100,-100,-100,0,0,100,0.00,40.00,0,-999,0,0.00
2013-8-27,75,62,54,-100,-100,-100,0,0,100,0.00,40.00,0,-999,0,0.00
2013-8-28,87,81,73,-100,-100,-100,0,0,100,0.00,40.00,0,-999,0,0.00
2013-8-29,88,75,59,-100,-100,-100,0,0,100,0.00,40.00,0,-999,0,0.00
2013-8-30,90,72,58,-100,-100,-100,0,0,100,0.00,40.00,0,-999,0,0.00
2013-8-31,92,75,57,-100,-100,-100,0,0,100,0.00,40.00,0,-999,0,0.00
2013-9-1,89,80,65,-100,-100,-100,0,0,100,0.00,40.00,0,-999,0,0.00
2013-9-2,85,74,67,-100,-100,-100,0,0,100,0.00,40.00,0,-999,0,0.00
2013-9-3,85,72,64,-100,-100,-100,0,0,100,0.00,40.00,0,-999,0,0.00
2013-9-4,87,71,56,-100,-100,-100,0,0,100,0.00,40.00,0,-999,0,0.00
2013-9-5,87,71,57,-100,-100,-100,0,0,100,0.00,40.00,0,-999,0,0.00
2013-9-6,83,69,56,-100,-100,-100,0,0,100,0.00,40.00,0,-999,0,0.00
2013-9-7,86,72,55,-100,-100,-100,0,0,100,0.00,40.00,0,-999,0,0.00
2013-9-8,87,74,54,-100,-100,-100,0,0,100,0.00,40.00,0,-999,0,0.00
2013-9-9,83,68,58,-100,-100,-100,0,0,100,0.00,40.00,0,-999,0,0.00
2013-9-10,86,68,55,-100,-100,-100,0,0,100,0.00,40.00,0,-999,0,0.00
2013-9-11,84,70,61,-100,-100,-100,0,0,100,0.00,40.00,0,-999,0,0.00
2013-9-12,76,68,61,-100,-100,-100,0,0,100,0.00,40.00,0,-999,0,0.00
2013-9-13,82,65,49,-100,-100,-100,0,0,100,0.00,40.00,0,-999,0,0.00
2013-9-14,86,69,50,-100,-100,-100,0,0,100,0.00,40.00,0,-999,0,0.00
2013-9-15,88,74,56,-100,-100,-100,0,0,100,0.00,40.00,0,-999,0,0.00
2013-9-16,87,71,48,-100,-100,-100,0,0,100,0.00,40.00,0,-999,0,0.00
2013-9-17,79,67,53,-100,-100,-100,0,0,100,0.00,40.00,0,-999,0,0.00
2013-9-18,58,48,43,-100,-100,-100,0,0,100,0.00,40.00,0,-999,0,0.00
2013-9-19,76,56,43,-100,-100,-100,0,0,100,0.00,40.00,0,-999,0,0.00
2013-9-20,82,63,42,-100,-100,-100,0,0,100,0.00,40.00,0,-999,0,0.00
2013-9-21,70,59,43,-100,-100,-100,0,0,100,0.00,40.00,0,-999,0,0.00
2013-9-22,65,53,43,-100,-100,-100,0,0,100,0.00,40.00,0,-999,0,0.00
2013-9-23,73,56,39,-100,-100,-100,0,0,100,0.00,40.00,0,-999,0,0.00
2013-9-24,75,62,40,-100,-100,-100,0,0,100,0.00,40.00,0,-999,0,0.00
2013-9-25,55,48,40,-100,-100,-100,0,0,100,0.00,40.00,0,-999,0,0.00
2013-9-26,54,43,34,-100,-100,-100,0,0,100,0.00,40.00,0,-999,0,0.00
2013-9-27,59,47,35,-100,-100,-100,0,0,100,0.00,40.00,0,-999,0,0.00
2013-9-28,71,52,31,-100,-100,-100,0,0,100,0.00,40.00,0,-999,0,0.00
2013-9-29,71,64,57,-100,-100,-100,0,0,100,0.00,40.00,0,-999,0,0.00
2013-9-30,71,63,58,-100,-100,-100,0,0,100,0.00,40.00,0,-999,0,0.00
2013-10-1,73,65,53,-100,-100,-100,0,0,100,0.00,40.00,0,-999,0,0.00
2013-10-2,69,48,37,-100,-100,-100,0,0,100,0.00,40.00,0,-999,0,0.00
2013-10-3,54,43,36,-100,-100,-100,0,0,100,0.00,40.00,0,-999,0,0.00
2013-10-4,55,44,32,-100,-100,-100,0,0,100,0.00,40.00,0,-999,0,0.00
2013-10-5,62,47,34,-100,-100,-100,0,0,100,0.00,40.00,0,-999,0,0.00
2013-10-6,71,53,29,-100,-100,-100,0,0,100,0.00,40.00,0,-999,0,0.00
2013-10-7,71,53,33,-100,-100,-100,0,0,100,0.00,40.00,0,-999,0,0.00
2013-10-8,59,52,40,-100,-100,-100,0,0,100,0.00,40.00,0,-999,0,0.00
2013-10-9,54,48,43,-100,-100,-100,0,0,100,0.00,40.00,0,-999,0,0.00
2013-10-10,61,50,40,-100,-100,-100,0,0,100,0.00,40.00,0,-999,0,0.00
2013-10-11,62,49,30,-100,-100,-100,0,0,100,0.00,40.00,0,-999,0,0.00
2013-10-12,65,48,32,-100,-100,-100,0,0,100,0.00,40.00,0,-999,0,0.00
2013-10-13,52,43,37,-100,-100,-100,0,0,100,0.00,40.00,0,-999,0,0.00
2013-10-14,57,41,32,-100,-100,-100,0,0,100,0.00,40.00,0,-999,0,0.00
2013-10-15,57,43,31,-100,-100,-100,0,0,100,0.00,40.00,0,-999,0,0.00
2013-10-16,61,46,25,-100,-100,-100,0,0,100,0.00,40.00,0,-999,0,0.00
2013-10-17,65,47,25,-100,-100,-100,0,0,100,0.00,40.00,0,-999,0,0.00
2013-10-18,65,48,32,-100,-100,-100,0,0,100,0.00,40.00,0,-999,0,0.00
2013-10-19,66,43,30,-100,-100,-100,0,0,100,0.00,40.00,0,-999,0,0.00
2013-10-20,71,52,26,-100,-100,-100,0,0,100,0.00,40.00,0,-999,0,0.00
2013-10-21,67,50,34,-100,-100,-100,0,0,100,0.00,40.00,0,-999,0,0.00
2013-10-22,70,50,36,-100,-100,-100,0,0,100,0.00,40.00,0,-999,0,0.00
2013-10-23,69,50,32,-100,-100,-100,0,0,100,0.00,40.00,0,-999,0,0.00
2013-10-24,70,49,34,-100,-100,-100,0,0,100,0.00,40.00,0,-999,0,0.00
2013-10-25,70,48,34,-100,-100,-100,0,0,100,0.00,40.00,0,-999,0,0.00
2013-10-26,69,52,34,-100,-100,-100,0,0,100,0.00,40.00,0,-999,0,0.00
2013-10-27,72,47,25,-100,-100,-100,0,0,100,0.00,40.00,0,-999,0,0.00
2013-10-28,40,38,34,-100,-100,-100,0,0,100,0.00,40.00,0,-999,0,0.00
2013-10-29,37,34,29,-100,-100,-100,0,0,100,0.00,40.00,0,-999,0,0.00
2013-10-30,43,36,29,-100,-100,-100,0,0,100,0.00,40.00,0,-999,0,0.00
2013-10-31,51,38,24,-100,-100,-100,0,0,100,0.00,40.00,0,-999,0,0.00
2013-11-1,55,42,28,-100,-100,-100,0,0,100,0.00,40.00,0,-999,0,0.00
2013-11-2,56,40,26,-100,-100,-100,0,0,100,0.00,40.00,0,-999,0,0.00
2013-11-3,44,39,34,-100,-100,-100,0,0,100,0.00,40.00,0,-999,0,0.00
2013-11-4,43,35,28,-100,-100,-100,0,0,100,0.00,40.00,0,-999,0,0.00
2013-11-5,48,32,19,-100,-100,-100,0,0,100,0.00,40.00,0,-999,0,0.00
2013-11-6,52,35,24,-100,-100,-100,0,0,100,0.00,40.00,0,-999,0,0.00
2013-11-7,58,42,35,-100,-100,-100,0,0,100,0.00,40.00,0,-999,0,0.00
2013-11-8,59,45,30,-100,-100,-100,0,0,100,0.00,40.00,0,-999,0,0.00
2013-11-9,60,43,31,-100,-100,-100,0,0,100,0.00,40.00,0,-999,0,0.00
2013-11-10,58,42,27,-100,-100,-100,0,0,100,0.00,40.00,0,-999,0,0.00
2013-11-11,63,42,28,-100,-100,-100,0,0,100,0.00,40.00,0,-999,0,0.00
2013-11-12,53,43,36,-100,-100,-100,0,0,100,0.00,40.00,0,-999,0,0.00
2013-11-13,58,42,27,-100,-100,-100,0,0,100,0.00,40.00,0,-999,0,0.00
2013-11-14,60,42,25,-100,-100,-100,0,0,100,0.00,40.00,0,-999,0,0.00
2013-11-15,43,37,30,-100,-100,-100,0,0,100,0.00,40.00,0,-999,0,0.00
2013-11-16,54,42,31,-100,-100,-100,0,0,100,0.00,40.00,0,-999,0,0.00
2013-11-17,54,38,24,-100,-100,-100,0,0,100,0.00,40.00,0,-999,0,0.00
2013-11-18,51,38,22,-100,-100,-100,0,0,100,0.00,40.00,0,-999,0,0.00
2013-11-19,53,46,39,-100,-100,-100,0,0,100,0.00,40.00,0,-999,0,0.00
2013-11-20,51,43,32,-100,-100,-100,0,0,100,0.00,40.00,0,-999,0,0.00
2013-11-21,32,27,25,-100,-100,-100,0,0,100,0.00,40.00,0,-999,0,0.00
2013-11-22,36,28,20,-100,-100,-100,0,0,100,0.00,40.00,0,-999,0,0.00
2013-11-23,41,29,24,-100,-100,-100,0,0,100,0.00,40.00,0,-999,0,0.00
2013-11-24,36,29,20,-100,-100,-100,0,0,100,0.00,40.00,0,-999,0,0.00
2013-11-25,41,30,19,-100,-100,-100,0,0,100,0.00,40.00,0,-999,0,0.00
2013-11-26,42,28,19,-100,-100,-100,0,0,100,0.00,40.00,0,-999,0,0.00
2013-11-27,49,35,23,-100,-100,-100,0,0,100,0.00,40.00,0,-999,0,0.00
2013-11-28,44,33,23,-100,-100,-100,0,0,100,0.00,40.00,0,-999,0,0.00
2013-11-29,46,30,21,-100,-100,-100,0,0,100,0.00,40.00,0,-999,0,0.00
2013-11-30,45,30,21,-100,-100,-100,0,0,100,0.00,40.00,0,-999,0,0.00
2013-12-1,47,30,19,-100,-100,-100,0,0,100,0.00,40.00,0,-999,0,0.00
2013-12-2,62,51,25,-100,-100,-100,0,0,100,0.00,40.00,0,-999,0,0.00
2013-12-3,48,27,21,-100,-100,-100,0,0,100,0.00,40.00,0,-999,0,0.00
2013-12-4,23,18,11,-100,-100,-100,0,0,100,0.00,40.00,0,-999,0,0.00
2013-12-5,22,17,11,-100,-100,-100,0,0,100,0.00,40.00,0,-999,0,0.00
2013-12-6,27,20,9,-100,-100,-100,0,0,100,0.00,40.00,0,-999,0,0.00
2013-12-7,27,20,7,-100,-100,-100,0,0,100,0.00,40.00,0,-999,0,0.00
2013-12-8,12,5,-1,-100,-100,-100,0,0,100,0.00,40.00,0,-999,0,0.00
2013-12-9,12,5,-2,-100,-100,-100,0,0,100,0.00,40.00,0,-999,0,0.00
2013-12-10,15,6,-5,-100,-100,-100,0,0,100,0.00,40.00,0,-999,0,0.00
2013-12-11,19,7,3,-100,-100,-100,0,0,100,0.00,40.00,0,-999,0,0.00
2013-12-12,15,8,2,-100,-100,-100,0,0,100,0.00,40.00,0,-999,0,0.00
2013-12-13,26,14,4,-100,-100,-100,0,0,100,0.00,40.00,0,-999,0,0.00
2013-12-14,25,13,3,-100,-100,-100,0,0,100,0.00,40.00,0,-999,0,0.00
2013-12-15,29,14,3,-100,-100,-100,0,0,100,0.00,40.00,0,-999,0,0.00
2013-12-16,28,16,8,-100,-100,-100,0,0,100,0.00,40.00,0,-999,0,0.00
2013-12-17,27,17,9,-100,-100,-100,0,0,100,0.00,40.00,0,-999,0,0.00
2013-12-18,32,25,14,-100,-100,-100,0,0,100,0.00,40.00,0,-999,0,0.00
2013-12-19,33,27,14,-100,-100,-100,0,0,100,0.00,40.00,0,-999,0,0.00
2013-12-20,27,16,4,-100,-100,-100,0,0,100,0.00,40.00,0,-999,0,0.00
2013-12-21,45,27,17,-100,-100,-100,0,0,100,0.00,40.00,0,-999,0,0.00
2013-12-22,42,29,16,-100,-100,-100,0,0,100,0.00,40.00,0,-999,0,0.00
2013-12-23,43,29,19,-100,-100,-100,0,0,100,0.00,40.00,0,-999,0,0.00
2013-12-24,44,29,15,-100,-100,-100,0,0,100,0.00,40.00,0,-999,0,0.00
2013-12-25,39,25,14,-100,-100,-100,0,0,100,0.00,40.00,0,-999,0,0.00
2013-12-26,31,18,12,-100,-100,-100,0,0,100,0.00,40.00,0,-999,0,0.00
2013-12-27,27,20,12,-100,-100,-100,0,0,100,0.00,40.00,0,-999,0,0.00
2013-12-28,29,21,18,-100,-100,-100,0,0,100,0.00,40.00,0,-999,0,0.00
2013-12-29,29,19,7,-100,-100,-100,0,0,100,0.00,40.00,0,-999,0,0.00
2013-12-30,34,21,9,-100,-100,-100,0,0,100,0.00,40.00,0,-999,0,0.00
2013-12-31,43,28,18,-100,-100,-100,0,0,100,0.00,40.00,0,-999,0,0.00
2014-1-1,43,29,17,-100,-100,-100,0,0,100,0.00,40.00,0,-999,0,0.00
2014-1-2,43,26,18,-100,-100,-100,0,0,100,0.00,40.00,0,-999,0,0.00